Time;durP1;ratioP1;P1;durP2;ratioP2;P2;SDS_P1;SDS_P2;PMS_P1;PMS_P2;Temp;Humidity;BMP_temperature;BMP_pressure;BME280_temperature;BME280_humidity;BME280_pressure;Samples;Min_cycle;Max_cycle;Signal;HPM_P1;HPM_P2
2021/12/04 00:01:16;;;;;;;;;;;;;;;8.24;63.17;99707.13;4995324;28;20434;-74
2021/12/04 00:03:41;;;;;;;;;;;;;;;8.26;62.58;99707.59;4996423;28;20335;-74
2021/12/04 00:06:13;;;;;;;;;;;;;;;8.37;61.82;99707.88;4996427;28;20029;-74
2021/12/04 00:08:43;;;;;;;;;;;;;;;8.32;61.86;99711.69;4979540;28;19917;-74
2021/12/04 00:11:09;;;;;;;;;;;;;;;8.29;61.46;99720.72;4979190;28;20285;-74
2021/12/04 00:13:34;;;;;;;;;;;;;;;8.30;61.33;99718.75;4985002;28;19927;-74
2021/12/04 00:15:59;;;;;;;;;;;;;;;8.34;60.83;99728.75;5015881;28;19928;-73
2021/12/04 00:18:25;;;;;;;;;;;;;;;8.31;60.94;99726.72;4998034;28;20008;-74
2021/12/04 00:20:50;;;;;;;;;;;;;;;8.32;60.49;99731.09;4997840;28;19922;-74
2021/12/04 00:23:15;;;;;;;;;;;;;;;8.24;61.11;99734.84;4998000;28;19940;-74
2021/12/04 00:25:41;;;;;;;;;;;;;;;8.20;60.94;99742.25;4998025;28;19918;-73
2021/12/04 00:28:07;;;;;;;;;;;;;;;8.20;60.70;99750.56;5016082;28;19921;-74
2021/12/04 00:30:32;;;;;;;;;;;;;;;8.21;60.66;99757.75;4997935;28;20004;-73
2021/12/04 00:33:10;;;;;;;;;;;;;;;8.28;60.33;99752.38;4997934;28;19917;-73
2021/12/04 00:35:52;;;;;;;;;;;;;;;8.19;61.03;99765.59;4998156;28;20306;-74
2021/12/04 00:49:10;;;;;;;;;;;;;;;7.78;63.65;99778.78;5015806;28;19984;-74
2021/12/04 00:51:38;;;;;;;;;;;;;;;7.71;63.98;99781.34;5014980;28;19960;-74
2021/12/04 00:54:05;;;;;;;;;;;;;;;7.66;64.14;99781.59;4997435;28;19917;-74
2021/12/04 00:56:31;;;;;;;;;;;;;;;7.65;64.40;99785.53;4998053;28;19926;-74
2021/12/04 00:58:57;;;;;;;;;;;;;;;7.68;62.10;99793.16;4997354;28;19956;-74
2021/12/04 01:01:22;;;;;;;;;;;;;;;7.74;61.80;99797.25;4997405;28;19922;-74
2021/12/04 01:03:50;;;;;;;;;;;;;;;7.74;60.51;99805.56;5014715;28;19971;-74
2021/12/04 01:06:15;;;;;;;;;;;;;;;7.78;60.50;99800.16;5014683;28;19917;-74
2021/12/04 01:08:41;;;;;;;;;;;;;;;7.83;60.15;99803.47;4997071;28;19918;-74
2021/12/04 01:11:06;;;;;;;;;;;;;;;7.74;60.57;99808.34;4997781;28;19918;-74
2021/12/04 01:13:32;;;;;;;;;;;;;;;7.73;61.07;99809.50;4996947;28;19921;-74
2021/12/04 01:15:57;;;;;;;;;;;;;;;7.70;61.26;99803.84;5014646;28;19917;-74
2021/12/04 01:18:23;;;;;;;;;;;;;;;7.65;61.14;99801.34;5014894;28;19925;-74
2021/12/04 01:20:48;;;;;;;;;;;;;;;7.59;61.10;99809.09;5014747;28;19922;-74
2021/12/04 01:23:16;;;;;;;;;;;;;;;7.60;61.32;99813.47;4997373;28;19918;-74
2021/12/04 01:25:41;;;;;;;;;;;;;;;7.55;61.79;99813.72;5014940;28;19917;-74
2021/12/04 01:28:07;;;;;;;;;;;;;;;7.48;61.92;99813.53;4997432;28;20368;-74
2021/12/04 01:30:32;;;;;;;;;;;;;;;7.45;62.00;99819.75;4997556;28;20368;-74
2021/12/04 01:32:58;;;;;;;;;;;;;;;7.46;61.17;99821.38;4997188;28;20261;-74
2021/12/04 01:35:23;;;;;;;;;;;;;;;7.38;62.77;99825.88;4997216;28;19917;-74
2021/12/04 01:37:49;;;;;;;;;;;;;;;7.34;64.13;99824.97;4997297;28;19922;-74
2021/12/04 01:40:14;;;;;;;;;;;;;;;7.32;66.25;99819.78;4997424;28;19925;-74
2021/12/04 01:42:40;;;;;;;;;;;;;;;7.31;62.99;99812.66;4997265;28;19921;-74
2021/12/04 01:45:06;;;;;;;;;;;;;;;7.37;62.34;99812.41;4997558;28;19918;-74
2021/12/04 01:47:32;;;;;;;;;;;;;;;7.42;63.38;99801.09;4997707;28;19921;-74
2021/12/04 01:49:59;;;;;;;;;;;;;;;7.19;62.73;99801.63;4998113;28;19964;-74
2021/12/04 01:52:26;;;;;;;;;;;;;;;7.22;63.39;99778.75;5015598;28;19917;-74
2021/12/04 01:54:51;;;;;;;;;;;;;;;7.24;62.99;99776.44;4996650;28;20390;-74
2021/12/04 01:57:19;;;;;;;;;;;;;;;7.23;62.84;99774.84;4996626;28;19921;-74
2021/12/04 01:59:44;;;;;;;;;;;;;;;7.16;65.66;99780.16;5014570;28;19940;-74
2021/12/04 02:02:10;;;;;;;;;;;;;;;7.15;66.44;99778.56;5014020;28;20372;-74
2021/12/04 02:04:35;;;;;;;;;;;;;;;7.07;66.37;99776.72;4996512;28;20431;-74
2021/12/04 02:07:03;;;;;;;;;;;;;;;7.05;67.59;99773.50;5014242;28;19968;-74
2021/12/04 02:09:29;;;;;;;;;;;;;;;7.09;67.54;99763.38;4996869;28;19952;-74
2021/12/04 02:11:55;;;;;;;;;;;;;;;7.05;68.12;99756.91;4996871;28;19921;-74
2021/12/04 02:14:20;;;;;;;;;;;;;;;7.10;68.18;99753.91;5014108;28;19972;-74
2021/12/04 02:16:45;;;;;;;;;;;;;;;7.00;67.86;99754.38;4996524;28;19925;-74
2021/12/04 02:19:13;;;;;;;;;;;;;;;6.86;67.50;99765.00;4997285;28;19917;-74
2021/12/04 02:21:38;;;;;;;;;;;;;;;6.82;67.57;99765.72;5014351;28;19917;-74
2021/12/04 02:24:04;;;;;;;;;;;;;;;6.86;67.59;99765.81;5016257;28;19924;-74
2021/12/04 02:26:29;;;;;;;;;;;;;;;6.87;68.54;99761.06;5017849;28;19968;-74
2021/12/04 02:28:57;;;;;;;;;;;;;;;6.81;68.67;99764.09;5018156;28;19924;-74
2021/12/04 02:31:24;;;;;;;;;;;;;;;6.84;67.98;99768.13;5018411;28;19979;-74
2021/12/04 02:33:50;;;;;;;;;;;;;;;6.84;68.26;99757.06;5000103;28;19918;-74
2021/12/04 02:36:15;;;;;;;;;;;;;;;6.76;68.77;99758.78;5017637;28;19971;-74
2021/12/04 02:38:50;;;;;;;;;;;;;;;6.84;69.19;99762.59;4999994;28;20000;-74
2021/12/04 02:41:15;;;;;;;;;;;;;;;6.78;69.19;99767.56;5017632;28;19925;-74
2021/12/04 02:43:43;;;;;;;;;;;;;;;6.69;69.98;99766.06;5000192;28;19918;-74
2021/12/04 02:46:08;;;;;;;;;;;;;;;6.67;70.82;99769.19;5017157;28;19922;-74
2021/12/04 02:48:34;;;;;;;;;;;;;;;6.67;70.38;99784.97;5017771;28;20067;-74
2021/12/04 02:50:59;;;;;;;;;;;;;;;6.66;71.25;99797.16;4999836;28;20399;-74
2021/12/04 02:53:25;;;;;;;;;;;;;;;6.65;70.32;99792.78;5018023;28;19925;-74
2021/12/04 02:55:52;;;;;;;;;;;;;;;6.62;71.72;99802.59;4999658;28;19922;-74
2021/12/04 02:58:18;;;;;;;;;;;;;;;6.63;71.76;99817.22;4999686;28;19924;-74
2021/12/04 03:00:48;;;;;;;;;;;;;;;6.56;72.06;99817.78;5017537;28;19918;-74
2021/12/04 03:03:18;;;;;;;;;;;;;;;6.67;71.52;99824.47;5017207;28;20013;-74
2021/12/04 03:05:50;;;;;;;;;;;;;;;6.68;71.65;99837.16;4983894;28;19922;-74
2021/12/04 03:08:16;;;;;;;;;;;;;;;6.76;71.15;99841.75;4999848;28;19925;-74
2021/12/04 03:10:41;;;;;;;;;;;;;;;6.59;72.56;99850.25;4999495;28;19917;-74
2021/12/04 03:13:09;;;;;;;;;;;;;;;6.53;72.54;99851.63;4999281;28;19922;-74
2021/12/04 03:15:37;;;;;;;;;;;;;;;6.49;73.37;99839.66;4999211;28;19972;-74
2021/12/04 03:18:03;;;;;;;;;;;;;;;6.52;73.49;99850.03;4999235;28;19948;-74
2021/12/04 03:20:28;;;;;;;;;;;;;;;6.50;73.85;99844.06;4999584;28;19917;-74
2021/12/04 03:22:59;;;;;;;;;;;;;;;6.54;73.72;99842.19;4999477;28;19918;-74
2021/12/04 03:25:24;;;;;;;;;;;;;;;6.53;73.79;99835.06;4998926;28;19956;-74
2021/12/04 03:27:50;;;;;;;;;;;;;;;6.51;74.55;99837.38;4999196;28;19972;-74
2021/12/04 03:30:30;;;;;;;;;;;;;;;6.57;73.49;99830.47;5016449;28;20292;-74
2021/12/04 03:40:55;;;;;;;;;;;;;;;6.36;74.06;99815.94;5016581;28;19925;-74
2021/12/04 03:43:20;;;;;;;;;;;;;;;6.41;74.33;99821.22;5016699;28;20023;-74
2021/12/04 03:45:49;;;;;;;;;;;;;;;6.32;75.06;99812.22;4998812;28;20399;-74
2021/12/04 03:48:39;;;;;;;;;;;;;;;6.23;75.36;99824.22;5016969;28;19960;-74
2021/12/04 03:51:04;;;;;;;;;;;;;;;6.27;76.08;99816.81;5016056;28;19917;-74
2021/12/04 03:53:30;;;;;;;;;;;;;;;6.29;75.56;99809.00;4998739;28;19924;-74
2021/12/04 03:55:56;;;;;;;;;;;;;;;6.24;75.41;99817.53;4998626;28;19917;-74
2021/12/04 03:58:21;;;;;;;;;;;;;;;6.19;76.70;99819.69;5016133;28;19924;-74
2021/12/04 04:00:47;;;;;;;;;;;;;;;6.25;75.03;99827.41;4998838;28;20007;-74
2021/12/04 04:03:12;;;;;;;;;;;;;;;6.18;75.74;99837.41;4998945;28;19918;-74
2021/12/04 04:05:37;;;;;;;;;;;;;;;6.12;76.12;99839.56;5015722;28;19980;-74
2021/12/04 04:08:03;;;;;;;;;;;;;;;6.09;75.87;99845.00;4998516;28;19967;-74
2021/12/04 04:10:28;;;;;;;;;;;;;;;6.08;75.94;99858.00;4998817;28;19972;-74
2021/12/04 04:12:54;;;;;;;;;;;;;;;6.07;75.09;99856.38;4999089;28;19917;-74
2021/12/04 04:15:21;;;;;;;;;;;;;;;6.09;74.91;99867.09;4999505;28;19924;-74
2021/12/04 04:17:47;;;;;;;;;;;;;;;6.19;76.05;99866.66;4998449;28;19918;-74
2021/12/04 04:20:14;;;;;;;;;;;;;;;6.12;76.05;99860.88;5015562;28;19940;-74
2021/12/04 04:22:43;;;;;;;;;;;;;;;6.18;76.14;99857.56;4998410;28;20364;-74
2021/12/04 04:25:09;;;;;;;;;;;;;;;6.10;75.42;99863.97;5015644;28;19918;-74
2021/12/04 04:27:34;;;;;;;;;;;;;;;6.18;75.40;99857.56;4998881;28;19917;-74
2021/12/04 04:29:59;;;;;;;;;;;;;;;6.11;75.30;99862.81;4997916;28;19971;-74
2021/12/04 04:32:25;;;;;;;;;;;;;;;6.11;75.49;99873.88;5015867;28;19944;-75
2021/12/04 04:34:54;;;;;;;;;;;;;;;6.20;74.86;99871.03;4997819;28;20368;-74
2021/12/04 04:38:07;;;;;;;;;;;;;;;6.04;75.05;99857.88;4998335;28;19918;-74
2021/12/04 05:15:56;;;;;;;;;;;;;;;5.78;77.87;99905.00;4981537;28;19922;-74
2021/12/04 05:18:33;;;;;;;;;;;;;;;5.75;78.41;99910.41;4997636;28;19917;-74
2021/12/04 05:21:06;;;;;;;;;;;;;;;5.75;78.92;99908.47;4997412;28;20284;-74
2021/12/04 05:23:36;;;;;;;;;;;;;;;5.83;77.93;99903.19;4996637;28;19980;-74
2021/12/04 05:26:03;;;;;;;;;;;;;;;5.93;77.63;99916.63;4997280;28;19921;-74
2021/12/04 05:28:29;;;;;;;;;;;;;;;5.86;78.06;99916.31;5014918;28;20388;-74
2021/12/04 05:30:54;;;;;;;;;;;;;;;5.83;77.32;99905.97;4997583;28;19917;-74
2021/12/04 05:33:19;;;;;;;;;;;;;;;5.77;77.95;99899.84;5014758;28;19952;-75
2021/12/04 05:35:48;;;;;;;;;;;;;;;5.80;77.79;99912.94;4996811;28;19925;-74
2021/12/04 05:38:15;;;;;;;;;;;;;;;5.85;77.97;99914.69;4997395;28;20032;-74
2021/12/04 05:40:40;;;;;;;;;;;;;;;5.81;77.73;99902.75;4980555;28;19926;-74
2021/12/04 05:43:05;;;;;;;;;;;;;;;5.72;78.46;99903.59;4996947;28;19917;-74
2021/12/04 05:45:34;;;;;;;;;;;;;;;5.72;78.99;99909.13;4996797;28;19939;-74
2021/12/04 05:48:21;;;;;;;;;;;;;;;5.72;79.66;99909.13;4997084;28;19941;-74
2021/12/04 05:55:52;;;;;;;;;;;;;;;5.65;79.13;99922.66;5014248;28;19921;-74
2021/12/04 05:58:19;;;;;;;;;;;;;;;5.64;78.96;99931.25;4997685;28;20008;-74
2021/12/04 06:00:44;;;;;;;;;;;;;;;5.65;78.39;99930.94;5000135;28;19948;-74
2021/12/04 06:03:11;;;;;;;;;;;;;;;5.65;78.96;99939.22;5000387;28;19991;-74
2021/12/04 06:05:37;;;;;;;;;;;;;;;5.59;79.20;99935.03;5001214;28;20284;-74
2021/12/04 06:08:02;;;;;;;;;;;;;;;5.63;79.87;99940.69;5001204;28;19918;-74
2021/12/04 06:10:30;;;;;;;;;;;;;;;5.61;79.81;99949.31;5000328;28;20296;-74
2021/12/04 06:12:56;;;;;;;;;;;;;;;5.58;79.74;99947.22;5000324;28;19922;-74
2021/12/04 06:15:21;;;;;;;;;;;;;;;5.60;79.58;99944.94;5000431;28;19971;-74
2021/12/04 06:17:49;;;;;;;;;;;;;;;5.59;80.54;99942.50;5017980;28;19972;-74
2021/12/04 06:22:58;;;;;;;;;;;;;;;6.76;77.32;99941.28;5017824;28;19972;-74
2021/12/04 06:25:25;;;;;;;;;;;;;;;7.31;74.25;99951.03;5017527;28;19921;-74
2021/12/04 06:27:51;;;;;;;;;;;;;;;7.85;72.36;99955.44;5000300;28;19925;-74
2021/12/04 06:30:17;;;;;;;;;;;;;;;8.28;71.13;99946.41;5001194;28;19924;-74
2021/12/04 06:32:45;;;;;;;;;;;;;;;8.73;70.13;99945.25;5001345;28;20272;-77
2021/12/04 06:35:11;;;;;;;;;;;;;;;9.24;67.57;99947.34;5018761;28;19921;-72
2021/12/04 06:37:36;;;;;;;;;;;;;;;9.68;65.32;99956.31;5002388;28;19917;-72
2021/12/04 06:40:05;;;;;;;;;;;;;;;10.06;64.21;99949.19;5005146;28;19971;-72
2021/12/04 06:42:34;;;;;;;;;;;;;;;10.48;62.52;99946.50;5001365;28;19922;-72
2021/12/04 06:44:59;;;;;;;;;;;;;;;10.95;60.38;99939.81;4999804;28;20394;-72
2021/12/04 06:47:25;;;;;;;;;;;;;;;11.33;59.66;99943.63;4999900;28;20000;-72
2021/12/04 06:49:53;;;;;;;;;;;;;;;11.61;59.41;99951.63;5000136;28;20017;-72
2021/12/04 06:52:23;;;;;;;;;;;;;;;11.94;57.45;99948.97;5017196;28;20377;-72
2021/12/04 06:54:59;;;;;;;;;;;;;;;12.11;57.23;99952.34;5000000;28;19925;-73
2021/12/04 06:57:24;;;;;;;;;;;;;;;12.42;56.58;99954.75;5017232;28;19917;-72
2021/12/04 06:59:52;;;;;;;;;;;;;;;12.90;55.17;99957.66;5000304;28;19976;-72
2021/12/04 07:02:18;;;;;;;;;;;;;;;13.05;54.59;99959.38;5049482;23;19925;-79
2021/12/04 07:04:44;;;;;;;;;;;;;;;13.26;53.54;99969.16;5000391;28;19924;-78
2021/12/04 07:07:10;;;;;;;;;;;;;;;13.67;51.89;99964.28;5001977;28;19995;-79
2021/12/04 07:09:36;;;;;;;;;;;;;;;13.92;51.60;99972.03;5019774;28;20311;-72
2021/12/04 07:12:02;;;;;;;;;;;;;;;14.21;51.56;99968.19;5002629;28;19917;-72
2021/12/04 07:14:28;;;;;;;;;;;;;;;14.73;49.78;99982.00;5000932;28;19917;-72
2021/12/04 07:16:54;;;;;;;;;;;;;;;15.05;48.66;99982.88;4999720;28;19917;-72
2021/12/04 07:19:19;;;;;;;;;;;;;;;15.11;47.53;99984.09;5016836;28;19929;-73
2021/12/04 07:21:45;;;;;;;;;;;;;;;15.29;48.38;99986.91;4999070;28;19917;-72
2021/12/04 07:24:12;;;;;;;;;;;;;;;15.48;46.51;99982.91;4999284;28;19917;-73
2021/12/04 07:26:38;;;;;;;;;;;;;;;15.60;47.06;99988.09;4999280;28;20005;-73
2021/12/04 07:29:03;;;;;;;;;;;;;;;15.83;46.27;99996.13;4999075;28;19961;-73
2021/12/04 07:31:29;;;;;;;;;;;;;;;15.81;45.91;99994.91;4998998;28;19921;-72
2021/12/04 07:33:55;;;;;;;;;;;;;;;16.12;45.60;99999.66;4999024;28;19964;-73
2021/12/04 07:36:21;;;;;;;;;;;;;;;16.34;44.47;99997.59;4999058;28;19939;-73
2021/12/04 07:38:47;;;;;;;;;;;;;;;16.43;44.79;100002.78;4998878;28;19972;-73
2021/12/04 07:41:12;;;;;;;;;;;;;;;16.41;44.66;100000.41;4998897;28;19917;-73
2021/12/04 07:43:37;;;;;;;;;;;;;;;16.43;43.02;99999.97;5016439;28;20012;-73
2021/12/04 07:46:03;;;;;;;;;;;;;;;16.64;42.92;99997.06;5016033;28;19924;-71
2021/12/04 07:48:31;;;;;;;;;;;;;;;16.69;42.69;100002.28;4997806;28;19927;-74
2021/12/04 07:51:01;;;;;;;;;;;;;;;16.58;40.45;100006.34;4998893;28;19967;-74
2021/12/04 07:53:32;;;;;;;;;;;;;;;16.89;40.73;100001.81;5015513;28;19921;-74
2021/12/04 07:55:58;;;;;;;;;;;;;;;16.71;39.15;99999.06;5015880;28;19976;-74
2021/12/04 07:58:24;;;;;;;;;;;;;;;15.93;38.76;100000.13;4998384;28;20359;-74
2021/12/04 08:00:49;;;;;;;;;;;;;;;15.75;39.61;99994.53;4998531;28;19917;-74
2021/12/04 08:03:15;;;;;;;;;;;;;;;14.95;40.32;100000.47;4984254;28;20072;-73
2021/12/04 08:05:40;;;;;;;;;;;;;;;14.74;40.34;100003.22;4979109;28;19968;-73
2021/12/04 08:08:06;;;;;;;;;;;;;;;14.36;41.40;99997.03;4979037;28;19918;-70
2021/12/04 08:10:34;;;;;;;;;;;;;;;13.79;43.39;100000.31;4979407;28;19968;-71
2021/12/04 08:13:01;;;;;;;;;;;;;;;13.76;42.43;99998.31;4978751;28;20443;-72
2021/12/04 08:15:27;;;;;;;;;;;;;;;13.98;43.96;100009.63;4978813;28;19965;-73
2021/12/04 08:17:52;;;;;;;;;;;;;;;14.60;41.33;100010.38;4996218;28;19917;-72
2021/12/04 08:20:18;;;;;;;;;;;;;;;14.17;42.29;100017.75;4978345;28;19986;-72
2021/12/04 08:22:43;;;;;;;;;;;;;;;14.74;42.09;100025.63;4978459;28;19972;-72
2021/12/04 08:25:11;;;;;;;;;;;;;;;15.03;40.99;100021.72;4978736;28;19929;-72
2021/12/04 08:27:37;;;;;;;;;;;;;;;14.73;40.24;100013.63;4978629;28;19948;-72
2021/12/04 08:30:14;;;;;;;;;;;;;;;14.79;41.57;100019.63;4978097;28;19926;-72
2021/12/04 08:32:39;;;;;;;;;;;;;;;14.87;40.31;100033.28;4995681;28;19928;-72
2021/12/04 08:35:07;;;;;;;;;;;;;;;15.12;41.99;100024.91;4977314;28;19917;-72
2021/12/04 08:37:34;;;;;;;;;;;;;;;14.67;41.02;100034.81;4995153;28;20387;-72
2021/12/04 08:39:59;;;;;;;;;;;;;;;14.83;41.77;100028.84;4978287;28;19921;-72
2021/12/04 08:42:24;;;;;;;;;;;;;;;15.60;41.16;100035.75;4978430;28;19973;-72
2021/12/04 08:44:51;;;;;;;;;;;;;;;15.43;38.89;100042.19;4995678;28;19986;-77
2021/12/04 08:47:20;;;;;;;;;;;;;;;15.59;40.38;100045.38;4978322;28;20327;-77
2021/12/04 08:49:46;;;;;;;;;;;;;;;15.51;40.57;100041.00;4978782;28;20008;-77
2021/12/04 08:52:11;;;;;;;;;;;;;;;14.79;40.97;100042.03;4996502;28;19953;-77
2021/12/04 08:54:37;;;;;;;;;;;;;;;15.32;39.93;100052.56;4978790;28;20013;-78
2021/12/04 08:57:04;;;;;;;;;;;;;;;16.08;40.99;100045.78;4995689;28;19917;-77
2021/12/04 08:59:29;;;;;;;;;;;;;;;16.22;38.56;100038.13;4978191;28;20016;-78
2021/12/04 09:01:54;;;;;;;;;;;;;;;15.92;39.40;100034.97;4980970;28;19964;-77
2021/12/04 09:04:23;;;;;;;;;;;;;;;16.65;39.56;100043.63;4998222;28;19921;-78
2021/12/04 09:06:50;;;;;;;;;;;;;;;17.08;38.82;100043.44;4999844;28;20013;-78
2021/12/04 09:09:16;;;;;;;;;;;;;;;16.73;38.48;100045.22;5017076;28;19921;-79
2021/12/04 09:11:43;;;;;;;;;;;;;;;16.17;38.80;100040.56;5000306;28;19923;-79
2021/12/04 09:14:10;;;;;;;;;;;;;;;16.19;41.10;100041.78;5000396;28;20367;-79
2021/12/04 09:16:36;;;;;;;;;;;;;;;15.57;39.67;100052.63;5017527;28;19917;-78
2021/12/04 09:19:02;;;;;;;;;;;;;;;16.41;39.51;100039.72;5001363;28;19968;-79
2021/12/04 09:21:28;;;;;;;;;;;;;;;16.90;39.60;100042.75;5000015;28;20370;-78
2021/12/04 09:24:04;;;;;;;;;;;;;;;16.40;38.73;100035.28;5016739;28;19925;-78
2021/12/04 09:26:39;;;;;;;;;;;;;;;16.07;39.42;100036.56;5016464;28;19987;-79
2021/12/04 09:40:36;;;;;;;;;;;;;;;16.66;37.47;100022.75;5020107;28;19967;-78
2021/12/04 10:02:32;;;;;;;;;;;;;;;15.60;40.53;99993.69;5014585;28;19967;-79
2021/12/04 10:24:12;;;;;;;;;;;;;;;16.46;38.37;99974.69;5014769;28;20276;-78
2021/12/04 10:32:08;;;;;;;;;;;;;;;16.40;38.41;99973.50;4997075;28;20413;-77
2021/12/04 10:32:33;;;;;;;;;;;;;;;16.79;37.81;99960.53;4999372;28;19975;-78
2021/12/04 10:35:03;;;;;;;;;;;;;;;16.00;38.69;99969.25;5014991;28;20019;-78
2021/12/04 10:37:32;;;;;;;;;;;;;;;16.00;39.55;99971.25;4996655;28;19922;-78
2021/12/04 10:39:59;;;;;;;;;;;;;;;16.16;39.47;99966.78;5015944;28;19917;-79
2021/12/04 10:42:32;;;;;;;;;;;;;;;16.29;38.52;99964.31;5015921;28;20015;-78
2021/12/04 10:45:05;;;;;;;;;;;;;;;16.10;39.95;99953.59;5017600;28;20032;-78
2021/12/04 10:47:30;;;;;;;;;;;;;;;15.56;40.00;99962.09;5000313;28;19965;-77
2021/12/04 10:50:29;;;;;;;;;;;;;;;15.33;41.46;99961.69;5026323;28;19925;-79
2021/12/04 10:53:00;;;;;;;;;;;;;;;15.60;41.93;99957.25;5001283;28;20020;-78
2021/12/04 10:55:41;;;;;;;;;;;;;;;15.05;42.50;99962.47;5001474;28;19917;-79
2021/12/04 11:01:19;;;;;;;;;;;;;;;15.27;43.61;99952.06;5018554;28;19921;-79
2021/12/04 11:03:56;;;;;;;;;;;;;;;15.46;43.34;99946.06;5000230;28;19921;-79
2021/12/04 11:28:16;;;;;;;;;;;;;;;16.99;38.28;99939.91;5021365;28;20287;-78
2021/12/04 11:46:27;;;;;;;;;;;;;;;16.09;42.15;99930.34;5018927;28;19925;-78
2021/12/04 11:48:56;;;;;;;;;;;;;;;15.94;42.75;99921.16;5002024;28;19924;-78
2021/12/04 11:51:23;;;;;;;;;;;;;;;15.86;43.26;99913.16;5016941;28;20339;-78
2021/12/04 11:53:49;;;;;;;;;;;;;;;15.91;43.15;99923.97;4985115;28;20261;-78
2021/12/04 11:56:19;;;;;;;;;;;;;;;15.85;42.20;99922.78;5001217;28;19941;-78
2021/12/04 11:58:49;;;;;;;;;;;;;;;15.80;42.08;99926.00;5001309;28;19925;-78
2021/12/04 12:01:22;;;;;;;;;;;;;;;15.91;42.35;99927.56;5002862;28;19921;-78
2021/12/04 12:03:52;;;;;;;;;;;;;;;16.07;41.89;99918.69;4983060;28;20400;-78
2021/12/04 12:06:27;;;;;;;;;;;;;;;15.82;42.87;99913.19;5001550;28;19925;-78
2021/12/04 12:09:00;;;;;;;;;;;;;;;15.89;43.72;99906.75;4983951;28;19918;-78
2021/12/04 12:11:27;;;;;;;;;;;;;;;15.46;43.76;99910.41;5001691;28;19918;-77
2021/12/04 12:14:20;;;;;;;;;;;;;;;15.42;43.59;99906.81;4984034;28;20016;-78
2021/12/04 12:16:48;;;;;;;;;;;;;;;15.43;44.31;99902.00;4977263;28;20358;-79
2021/12/04 12:19:26;;;;;;;;;;;;;;;15.42;44.41;99911.63;4979004;28;19973;-78
2021/12/04 12:22:06;;;;;;;;;;;;;;;15.16;44.38;99921.25;4979039;28;19925;-78
2021/12/04 12:32:54;;;;;;;;;;;;;;;15.12;45.96;99926.84;4996163;28;19924;-78
2021/12/04 12:37:51;;;;;;;;;;;;;;;14.89;46.26;99929.22;4996262;28;20283;-78
2021/12/04 12:40:17;;;;;;;;;;;;;;;14.68;46.79;99930.78;4978886;28;19924;-78
2021/12/04 12:42:43;;;;;;;;;;;;;;;14.82;47.19;99948.84;4979259;28;19917;-78
2021/12/04 12:45:33;;;;;;;;;;;;;;;14.71;47.48;99954.41;4978331;28;19924;-78
2021/12/04 12:48:00;;;;;;;;;;;;;;;14.61;47.75;99957.97;4996295;28;19917;-78
2021/12/04 12:50:46;;;;;;;;;;;;;;;14.57;48.09;99957.97;4978414;28;19918;-78
2021/12/04 12:53:20;;;;;;;;;;;;;;;14.36;48.88;99966.25;4978527;28;19917;-78
2021/12/04 12:55:49;;;;;;;;;;;;;;;14.40;49.44;99972.69;4978573;28;19925;-78
2021/12/04 12:58:16;;;;;;;;;;;;;;;14.44;49.27;99978.28;4978477;28;19917;-78
2021/12/04 13:12:16;;;;;;;;;;;;;;;13.96;49.48;99984.84;5015475;28;20059;-78
2021/12/04 13:14:42;;;;;;;;;;;;;;;13.94;48.76;99980.81;4963361;28;19963;-78
2021/12/04 13:17:09;;;;;;;;;;;;;;;13.91;48.25;99979.63;4998931;28;20271;-78
2021/12/04 13:19:37;;;;;;;;;;;;;;;14.02;48.32;99982.50;4997608;28;19924;-78
2021/12/04 13:22:06;;;;;;;;;;;;;;;13.96;49.22;99987.66;4997983;28;19918;-78
2021/12/04 13:24:34;;;;;;;;;;;;;;;13.80;48.54;99990.75;5015745;28;19956;-78
2021/12/04 13:29:43;;;;;;;;;;;;;;;13.65;48.21;99991.03;5015506;28;20016;-78
2021/12/04 13:32:13;;;;;;;;;;;;;;;13.57;48.44;100002.16;4997646;28;19924;-78
2021/12/04 13:34:40;;;;;;;;;;;;;;;13.34;48.52;99998.78;4997512;28;20355;-78
2021/12/04 13:37:05;;;;;;;;;;;;;;;13.50;48.69;99985.34;4997840;28;19925;-79
2021/12/04 13:39:31;;;;;;;;;;;;;;;13.58;48.49;99991.75;5015401;28;19925;-78
2021/12/04 13:41:57;;;;;;;;;;;;;;;13.58;48.74;99987.00;4997898;28;19917;-78
2021/12/04 13:44:25;;;;;;;;;;;;;;;13.50;48.76;99990.91;4998560;28;19949;-78
2021/12/04 13:46:56;;;;;;;;;;;;;;;13.71;48.39;99993.06;4998123;28;19924;-78
2021/12/04 13:49:31;;;;;;;;;;;;;;;13.95;46.77;99983.22;5015565;28;19918;-78
2021/12/04 13:51:58;;;;;;;;;;;;;;;14.01;46.13;99987.28;5015142;28;20379;-78
2021/12/04 13:54:24;;;;;;;;;;;;;;;13.94;45.92;99984.44;4998257;28;19918;-79
2021/12/04 13:56:50;;;;;;;;;;;;;;;13.98;45.68;99993.66;4999123;28;19917;-78
2021/12/04 13:59:20;;;;;;;;;;;;;;;14.09;45.36;99983.31;5016157;28;20064;-79
2021/12/04 14:01:46;;;;;;;;;;;;;;;14.25;45.38;99987.78;4982478;28;20012;-79
2021/12/04 14:04:16;;;;;;;;;;;;;;;14.00;45.23;99980.06;4999126;28;20349;-78
2021/12/04 14:06:53;;;;;;;;;;;;;;;13.98;44.34;99973.28;4998982;28;19924;-79
2021/12/04 14:09:19;;;;;;;;;;;;;;;14.09;41.98;99972.13;5000099;28;20478;-78
2021/12/04 14:11:45;;;;;;;;;;;;;;;14.02;42.37;99968.50;4998200;28;19952;-79
2021/12/04 14:14:16;;;;;;;;;;;;;;;14.03;42.83;99970.91;5015112;28;19918;-78
2021/12/04 14:16:42;;;;;;;;;;;;;;;13.85;42.55;99968.00;4998098;28;19921;-79
2021/12/04 14:19:18;;;;;;;;;;;;;;;13.84;42.18;99965.59;4999502;28;19988;-78
2021/12/04 14:21:53;;;;;;;;;;;;;;;13.94;42.85;99970.44;5002449;28;19979;-79
2021/12/04 14:24:29;;;;;;;;;;;;;;;14.04;43.49;99975.28;5002767;28;19917;-79
2021/12/04 14:26:56;;;;;;;;;;;;;;;14.11;42.91;99972.56;5020486;28;19924;-79
2021/12/04 14:29:21;;;;;;;;;;;;;;;14.23;43.37;99977.00;5002447;28;19957;-79
2021/12/04 14:31:47;;;;;;;;;;;;;;;14.23;43.91;99965.00;5002493;28;19925;-79
2021/12/04 14:34:23;;;;;;;;;;;;;;;14.06;42.85;99967.34;5002948;28;19917;-79
2021/12/04 14:36:58;;;;;;;;;;;;;;;13.86;43.30;99975.22;5020480;28;19921;-78
2021/12/04 14:39:24;;;;;;;;;;;;;;;13.79;43.51;99975.13;5003990;28;20335;-78
2021/12/04 14:41:49;;;;;;;;;;;;;;;13.55;44.79;99979.38;5021898;28;19922;-78
2021/12/04 14:44:15;;;;;;;;;;;;;;;13.44;44.79;99980.50;5004969;28;19918;-78
2021/12/04 14:46:40;;;;;;;;;;;;;;;13.34;42.53;99979.22;5004767;28;19922;-77
2021/12/04 14:49:09;;;;;;;;;;;;;;;13.06;44.22;99983.34;5006057;28;19972;-77
2021/12/04 14:51:35;;;;;;;;;;;;;;;13.03;44.02;99989.66;5006251;28;19924;-77
2021/12/04 14:54:00;;;;;;;;;;;;;;;12.81;45.25;99987.84;5006513;28;19917;-77
2021/12/04 14:56:27;;;;;;;;;;;;;;;12.56;46.05;99982.78;5004074;28;19980;-77
2021/12/04 14:58:53;;;;;;;;;;;;;;;12.48;45.09;99997.84;5001777;28;19963;-77
2021/12/04 15:01:20;;;;;;;;;;;;;;;12.37;45.79;99990.53;5001361;28;20000;-78
2021/12/04 15:03:46;;;;;;;;;;;;;;;12.21;45.51;99982.38;5000442;28;19929;-78
2021/12/04 15:06:15;;;;;;;;;;;;;;;12.11;46.69;99983.03;5001568;28;19918;-77
2021/12/04 15:08:43;;;;;;;;;;;;;;;12.06;47.75;99982.16;5000895;28;19918;-78
2021/12/04 15:11:14;;;;;;;;;;;;;;;11.96;48.12;99971.66;4999905;28;20060;-78
2021/12/04 15:13:53;;;;;;;;;;;;;;;11.98;48.43;99990.81;5000105;28;19918;-78
2021/12/04 15:16:25;;;;;;;;;;;;;;;12.02;48.13;99986.88;5017856;28;20008;-78
2021/12/04 15:18:51;;;;;;;;;;;;;;;11.74;47.80;99981.69;5000712;28;19917;-79
2021/12/04 15:21:17;;;;;;;;;;;;;;;11.69;48.08;99978.41;5000657;28;19917;-78
2021/12/04 15:23:45;;;;;;;;;;;;;;;11.51;48.96;99986.53;5000414;28;19921;-78
2021/12/04 15:26:16;;;;;;;;;;;;;;;11.43;48.74;99988.38;5018098;28;19917;-79
2021/12/04 15:28:54;;;;;;;;;;;;;;;11.42;50.04;99989.56;5000917;28;20272;-79
2021/12/04 15:31:21;;;;;;;;;;;;;;;11.41;50.17;99996.31;5000116;28;19923;-79
2021/12/04 15:33:49;;;;;;;;;;;;;;;11.36;50.78;99991.03;5000259;28;19917;-79
2021/12/04 15:36:25;;;;;;;;;;;;;;;11.38;52.70;99996.22;5018036;28;19918;-79
2021/12/04 15:38:54;;;;;;;;;;;;;;;11.33;52.66;99990.97;5017528;28;19979;-79
2021/12/04 15:41:40;;;;;;;;;;;;;;;11.26;52.56;99988.88;5001341;28;20283;-79
2021/12/04 15:46:57;;;;;;;;;;;;;;;11.25;51.46;100002.00;5017505;28;19918;-79
2021/12/04 15:55:05;;;;;;;;;;;;;;;11.12;53.01;99988.63;5018319;28;20425;-79
2021/12/04 15:57:31;;;;;;;;;;;;;;;11.14;53.71;99998.25;5018041;28;19973;-79
2021/12/04 15:59:58;;;;;;;;;;;;;;;11.11;53.77;99987.81;5017687;28;19925;-79
2021/12/04 16:02:31;;;;;;;;;;;;;;;11.06;54.33;99995.69;4999482;28;20446;-79
2021/12/04 16:05:04;;;;;;;;;;;;;;;11.01;54.44;100000.38;4999418;28;19925;-79